Bradshaw, Texas
Current Conditions -  °F | °C
As of 1:58 AM on Thursday 27 Nov 2014 (Local Time) from KDYS Reporting Station
Clear Clear  
Wind Chill: 37°   Ceiling: Unl
Heat Index: 37°   Visibility: 10mi
Dew Point: 31°   Wind: 3mph
Humidity: 81%   Direction: 240°WSW
Pressure: 30.42"   Gusts: NA
Location:  31.975°N, 99.9034°W
Report Text: KDYS 270758Z AUTO 24003KT 10SM CLR 03/00 A3042 RMK AO2 SLP297 T00251005 $
Loading
Personal Weather Stations






























Interactive Weather Map New forecast layout! Learn more

10-Day Weather Forecast

Advertisements
Track Severe Weather on mobile